createdAt,value
2018-12-04T00:01:49.563Z,1.47
2018-12-04T00:04:16.649Z,1.53
2018-12-04T00:06:43.756Z,1.67
2018-12-04T00:09:10.860Z,1.60
2018-12-04T00:11:37.948Z,1.40
2018-12-04T00:14:05.128Z,1.50
2018-12-04T00:16:32.714Z,1.60
2018-12-04T00:18:59.317Z,1.60
2018-12-04T00:21:26.432Z,1.70
2018-12-04T00:23:53.499Z,1.57
2018-12-04T00:26:20.604Z,1.40
2018-12-04T00:28:47.700Z,1.40
2018-12-04T00:31:14.777Z,1.27
2018-12-04T00:33:41.895Z,1.60
2018-12-04T00:36:09.028Z,1.57
2018-12-04T00:38:36.133Z,1.40
2018-12-04T00:41:03.216Z,1.60
2018-12-04T00:43:30.304Z,1.67
2018-12-04T00:45:57.400Z,1.30
2018-12-04T00:48:24.507Z,1.30
2018-12-04T00:50:51.572Z,1.20
2018-12-04T00:53:18.686Z,1.50
2018-12-04T00:55:45.786Z,1.37
2018-12-04T00:58:12.942Z,1.23
2018-12-04T01:00:40.040Z,1.30
2018-12-04T01:03:07.129Z,1.70
2018-12-04T01:05:34.207Z,1.43
2018-12-04T01:08:01.296Z,1.40
2018-12-04T01:10:28.387Z,1.13
2018-12-04T01:12:55.480Z,1.30
2018-12-04T01:15:22.607Z,1.53
2018-12-04T01:17:49.725Z,1.00
2018-12-04T01:20:16.807Z,1.50
2018-12-04T01:22:43.914Z,1.30
2018-12-04T01:25:11.023Z,1.50
2018-12-04T01:27:38.110Z,1.30
2018-12-04T01:30:05.221Z,1.17
2018-12-04T01:32:32.306Z,1.27
2018-12-04T01:34:59.415Z,1.40
2018-12-04T01:37:26.482Z,1.33
2018-12-04T01:39:53.569Z,1.20
2018-12-04T01:42:20.714Z,1.40
2018-12-04T01:44:47.818Z,1.20
2018-12-04T01:47:14.936Z,1.53
2018-12-04T01:49:42.029Z,1.07
2018-12-04T01:52:09.124Z,1.20
2018-12-04T01:54:36.240Z,1.03
2018-12-04T01:57:03.329Z,0.93
2018-12-04T01:59:30.885Z,0.97
2018-12-04T02:01:57.965Z,1.17
2018-12-04T02:04:25.064Z,1.17
2018-12-04T02:06:52.161Z,1.50
2018-12-04T02:09:19.261Z,1.17
2018-12-04T02:11:46.332Z,1.17
2018-12-04T02:14:13.437Z,1.13
2018-12-04T02:16:40.529Z,0.93
2018-12-04T02:19:07.616Z,1.00
2018-12-04T02:21:34.684Z,1.20
2018-12-04T02:24:01.805Z,1.00
2018-12-04T02:26:28.925Z,0.97
2018-12-04T02:28:56.048Z,0.80
2018-12-04T02:31:23.140Z,1.10
2018-12-04T02:33:50.243Z,1.57
2018-12-04T02:36:17.325Z,0.97
2018-12-04T02:38:44.429Z,1.07
2018-12-04T02:41:11.519Z,0.80
2018-12-04T02:43:38.625Z,0.63
2018-12-04T02:46:05.732Z,1.20
2018-12-04T02:48:32.839Z,0.90
2018-12-04T02:50:59.985Z,0.80
2018-12-04T02:53:27.093Z,0.90
2018-12-04T02:55:54.234Z,0.87
2018-12-04T02:58:21.327Z,1.10
2018-12-04T03:00:48.400Z,0.80
2018-12-04T03:03:15.525Z,1.03
2018-12-04T03:05:42.640Z,0.80
2018-12-04T03:08:09.732Z,0.87
2018-12-04T03:10:36.811Z,1.40
2018-12-04T03:13:03.941Z,0.80
2018-12-04T03:15:31.056Z,0.80
2018-12-04T03:17:58.171Z,1.00
2018-12-04T03:20:25.269Z,0.90
2018-12-04T03:22:52.359Z,1.20
2018-12-04T03:25:19.461Z,0.80
2018-12-04T03:27:46.546Z,0.90
2018-12-04T03:30:13.698Z,0.70
2018-12-04T03:32:40.807Z,0.90
2018-12-04T03:35:07.922Z,0.70
2018-12-04T03:37:35.028Z,1.03
2018-12-04T03:40:02.228Z,0.70
2018-12-04T03:42:29.417Z,0.57
2018-12-04T03:44:56.528Z,0.70
2018-12-04T03:47:23.645Z,0.60
2018-12-04T03:49:50.741Z,0.70
2018-12-04T03:52:17.833Z,0.80
2018-12-04T03:54:44.930Z,0.93
2018-12-04T03:57:12.021Z,0.50
2018-12-04T03:59:39.125Z,0.70
2018-12-04T04:02:06.237Z,0.43
2018-12-04T04:04:33.372Z,0.60
2018-12-04T04:07:00.452Z,0.73
2018-12-04T04:09:27.560Z,0.60
2018-12-04T04:11:54.661Z,0.70
2018-12-04T04:14:21.773Z,0.47
2018-12-04T04:16:48.873Z,0.50
2018-12-04T04:19:15.992Z,0.70
2018-12-04T04:21:43.073Z,0.40
2018-12-04T04:24:10.177Z,0.70
2018-12-04T04:26:37.280Z,0.60
2018-12-04T04:29:04.414Z,0.70
2018-12-04T04:31:31.504Z,0.50
2018-12-04T04:33:58.593Z,0.57
2018-12-04T04:36:25.665Z,0.50
2018-12-04T04:38:52.761Z,0.50
2018-12-04T04:41:19.858Z,0.60
2018-12-04T04:43:46.966Z,0.60
2018-12-04T04:46:14.599Z,0.67
2018-12-04T04:48:41.182Z,0.40
2018-12-04T04:51:08.277Z,0.33
2018-12-04T04:53:35.377Z,0.50
2018-12-04T04:56:02.511Z,0.43
2018-12-04T04:58:29.602Z,0.70
2018-12-04T05:00:56.702Z,0.60
2018-12-04T05:03:23.786Z,0.50
2018-12-04T05:05:50.862Z,0.50
2018-12-04T05:08:17.957Z,0.50
2018-12-04T05:10:45.036Z,0.70
2018-12-04T05:13:12.126Z,0.43
2018-12-04T05:15:39.200Z,0.40
2018-12-04T05:18:06.300Z,0.60
2018-12-04T05:20:33.370Z,0.30
2018-12-04T05:23:00.480Z,0.50
2018-12-04T05:25:27.544Z,0.50
2018-12-04T05:27:54.628Z,0.43
2018-12-04T05:30:21.737Z,0.40
2018-12-04T05:32:48.829Z,0.53
2018-12-04T05:35:15.905Z,0.50
2018-12-04T05:37:42.976Z,0.60
2018-12-04T05:40:10.057Z,0.47
2018-12-04T05:42:37.174Z,0.60
2018-12-04T05:45:05.029Z,0.40
2018-12-04T05:47:32.140Z,0.60
2018-12-04T05:49:59.221Z,0.50
2018-12-04T05:52:26.328Z,0.80
2018-12-04T05:54:53.427Z,0.63
2018-12-04T05:57:20.533Z,0.50
2018-12-04T05:59:47.642Z,0.57
2018-12-04T06:02:14.749Z,0.53
2018-12-04T06:04:41.837Z,0.53
2018-12-04T06:07:08.939Z,0.50
2018-12-04T06:09:36.037Z,0.50
2018-12-04T06:12:03.136Z,0.50
2018-12-04T06:14:30.280Z,0.40
2018-12-04T06:16:57.376Z,0.43
2018-12-04T06:19:24.500Z,0.80
2018-12-04T06:21:51.588Z,0.50
2018-12-04T06:24:18.677Z,1.07
2018-12-04T06:26:45.794Z,0.50
2018-12-04T06:29:12.894Z,0.80
2018-12-04T06:31:40.005Z,0.70
2018-12-04T06:34:07.108Z,0.67
2018-12-04T06:36:34.216Z,1.10
2018-12-04T06:39:01.285Z,0.80
2018-12-04T06:41:28.408Z,0.40
2018-12-04T06:43:55.497Z,1.03
2018-12-04T06:46:22.580Z,0.90
2018-12-04T06:48:49.668Z,0.93
2018-12-04T06:51:16.803Z,0.90
2018-12-04T06:53:43.905Z,0.60
2018-12-04T06:56:11.017Z,0.63
2018-12-04T06:58:38.133Z,0.70
2018-12-04T07:01:05.268Z,0.63
2018-12-04T07:03:32.360Z,0.73
2018-12-04T07:05:59.479Z,0.97
2018-12-04T07:08:26.581Z,0.60
2018-12-04T07:10:53.681Z,0.80
2018-12-04T07:13:20.798Z,0.60
2018-12-04T07:15:47.890Z,0.40
2018-12-04T07:18:14.996Z,0.70
2018-12-04T07:20:42.114Z,0.60
2018-12-04T07:23:09.220Z,0.60
2018-12-04T07:25:36.312Z,0.70
2018-12-04T07:28:03.402Z,0.70
2018-12-04T07:30:30.497Z,0.80
2018-12-04T07:32:57.596Z,0.70
2018-12-04T07:35:24.707Z,0.70
2018-12-04T07:37:51.809Z,0.80
2018-12-04T07:40:18.908Z,0.70
2018-12-04T07:42:46.025Z,0.80
2018-12-04T07:45:13.132Z,0.53
2018-12-04T07:47:40.228Z,0.80
2018-12-04T07:50:07.329Z,0.77
2018-12-04T07:52:34.432Z,0.43
2018-12-04T07:55:01.536Z,0.80
2018-12-04T07:57:28.650Z,0.70
2018-12-04T07:59:55.773Z,0.83
2018-12-04T08:02:22.871Z,0.90
2018-12-04T08:04:49.977Z,1.00
2018-12-04T08:07:17.100Z,0.90
2018-12-04T08:09:44.199Z,0.80
2018-12-04T08:12:11.344Z,0.80
2018-12-04T08:14:38.493Z,0.90
2018-12-04T08:17:05.585Z,0.60
2018-12-04T08:19:32.689Z,0.80
2018-12-04T08:21:59.801Z,0.83
2018-12-04T08:24:26.882Z,0.67
2018-12-04T08:26:53.978Z,0.93
2018-12-04T08:29:21.080Z,1.10
2018-12-04T08:31:48.213Z,0.70
2018-12-04T08:34:15.316Z,0.90
2018-12-04T08:36:42.428Z,0.47
2018-12-04T08:39:13.024Z,0.80
2018-12-04T08:41:36.664Z,0.90
2018-12-04T08:44:03.782Z,1.00
2018-12-04T08:46:30.872Z,1.17
2018-12-04T08:48:57.973Z,0.93
2018-12-04T08:51:25.093Z,0.80
2018-12-04T08:53:52.210Z,0.97
2018-12-04T08:56:19.312Z,1.07
2018-12-04T08:58:46.436Z,0.87
2018-12-04T09:01:13.696Z,0.80
2018-12-04T09:03:40.780Z,0.87
2018-12-04T09:06:10.869Z,0.60
2018-12-04T09:08:37.994Z,0.97
2018-12-04T09:11:05.157Z,1.00
2018-12-04T09:13:32.276Z,0.93
2018-12-04T09:15:59.387Z,0.93
2018-12-04T09:18:26.496Z,1.17
2018-12-04T09:20:53.646Z,0.73
2018-12-04T09:23:20.754Z,0.97
2018-12-04T09:25:47.884Z,0.80
2018-12-04T09:28:14.960Z,1.10
2018-12-04T09:30:42.082Z,0.90
2018-12-04T09:33:09.160Z,1.17
2018-12-04T09:35:36.272Z,0.90
2018-12-04T09:38:03.373Z,0.83
2018-12-04T09:40:30.504Z,0.87
2018-12-04T09:42:57.647Z,1.20
2018-12-04T09:45:24.769Z,0.90
2018-12-04T09:47:51.869Z,0.90
2018-12-04T09:50:18.961Z,1.00
2018-12-04T09:52:46.051Z,1.00
2018-12-04T09:55:13.229Z,0.60
2018-12-04T09:57:40.348Z,1.20
2018-12-04T10:00:08.238Z,0.93
2018-12-04T10:02:35.349Z,1.27
2018-12-04T10:05:02.496Z,0.93
2018-12-04T10:07:29.594Z,0.90
2018-12-04T10:10:00.579Z,0.70
2018-12-04T10:12:23.816Z,0.83
2018-12-04T10:14:50.901Z,1.30
2018-12-04T10:17:17.965Z,1.00
2018-12-04T10:19:45.063Z,1.17
2018-12-04T10:22:12.176Z,0.90
2018-12-04T10:24:39.309Z,1.67
2018-12-04T10:27:06.397Z,0.90
2018-12-04T10:29:33.496Z,1.00
2018-12-04T10:32:00.580Z,0.90
2018-12-04T10:34:27.721Z,1.17
2018-12-04T10:36:54.845Z,0.67
2018-12-04T10:39:21.909Z,1.30
2018-12-04T10:41:49.024Z,0.90
2018-12-04T10:44:16.125Z,1.20
2018-12-04T10:46:43.229Z,1.07
2018-12-04T10:49:10.320Z,1.17
2018-12-04T10:51:37.401Z,0.80
2018-12-04T10:54:04.464Z,0.90
2018-12-04T10:56:31.545Z,1.00
2018-12-04T10:58:58.612Z,0.90
2018-12-04T11:01:31.368Z,1.07
2018-12-04T11:03:58.433Z,1.00
2018-12-04T11:06:25.524Z,0.97
2018-12-04T11:08:52.613Z,0.97
2018-12-04T11:11:19.738Z,1.00
2018-12-04T11:13:46.822Z,0.70
2018-12-04T11:16:13.932Z,1.07
2018-12-04T11:18:41.021Z,1.00
2018-12-04T11:21:08.107Z,0.80
2018-12-04T11:23:35.228Z,1.33
2018-12-04T11:26:02.312Z,1.23
2018-12-04T11:28:29.412Z,0.77
2018-12-04T11:30:56.522Z,0.83
2018-12-04T11:33:23.621Z,0.77
2018-12-04T11:35:50.725Z,1.07
2018-12-04T11:38:17.833Z,1.03
2018-12-04T11:40:44.933Z,0.90
2018-12-04T11:43:12.010Z,1.00
2018-12-04T11:45:39.108Z,1.40
2018-12-04T11:48:06.232Z,1.00
2018-12-04T11:50:33.345Z,1.40
2018-12-04T11:53:00.449Z,0.90
2018-12-04T11:55:27.559Z,0.87
2018-12-04T11:57:54.672Z,1.17
2018-12-04T12:00:24.200Z,1.00
2018-12-04T12:02:51.299Z,1.00
2018-12-04T12:05:18.408Z,0.80
2018-12-04T12:07:45.516Z,0.90
2018-12-04T12:10:12.600Z,0.87
2018-12-04T12:12:39.676Z,0.90
2018-12-04T12:15:06.780Z,1.07
2018-12-04T12:17:33.890Z,0.83
2018-12-04T12:20:00.974Z,1.27
2018-12-04T12:22:28.065Z,1.10
2018-12-04T12:24:55.168Z,1.00
2018-12-04T12:27:22.246Z,1.00
2018-12-04T12:29:49.360Z,0.90
2018-12-04T12:32:16.446Z,0.70
2018-12-04T12:34:43.553Z,1.00
2018-12-04T12:37:10.669Z,1.00
2018-12-04T12:39:37.760Z,0.90
2018-12-04T12:42:04.914Z,1.03
2018-12-04T12:44:32.022Z,0.87
2018-12-04T12:46:59.136Z,0.70
2018-12-04T12:49:26.240Z,1.10
2018-12-04T12:51:53.402Z,1.10
2018-12-04T12:54:20.510Z,1.00
2018-12-04T12:56:47.597Z,1.20
2018-12-04T12:59:14.700Z,1.20
2018-12-04T13:01:41.903Z,0.80
2018-12-04T13:04:08.961Z,1.10
2018-12-04T13:06:36.082Z,1.17
2018-12-04T13:09:04.835Z,0.90
2018-12-04T13:11:31.953Z,0.77
2018-12-04T13:13:59.084Z,0.80
2018-12-04T13:16:26.206Z,0.80
2018-12-04T13:18:53.325Z,0.70
2018-12-04T13:21:20.435Z,0.83
2018-12-04T13:23:47.540Z,1.03
2018-12-04T13:26:14.630Z,1.00
2018-12-04T13:28:41.755Z,1.00
2018-12-04T13:31:08.854Z,0.97
2018-12-04T13:33:35.965Z,0.80
2018-12-04T13:36:03.053Z,1.00
2018-12-04T13:38:30.156Z,0.90
2018-12-04T13:40:57.228Z,1.20
2018-12-04T13:43:24.331Z,0.83
2018-12-04T13:45:51.414Z,0.73
2018-12-04T13:48:18.525Z,1.07
2018-12-04T13:50:45.628Z,0.80
2018-12-04T13:53:12.708Z,1.10
2018-12-04T13:55:39.801Z,1.30
2018-12-04T13:58:06.922Z,0.90
2018-12-04T14:00:34.081Z,1.13
2018-12-04T14:03:01.157Z,0.77
2018-12-04T14:05:28.255Z,0.90
2018-12-04T14:07:55.339Z,1.20
2018-12-04T14:10:22.429Z,1.10
2018-12-04T14:12:49.516Z,0.70
2018-12-04T14:15:16.614Z,1.10
2018-12-04T14:17:43.704Z,1.10
2018-12-04T14:20:10.834Z,1.10
2018-12-04T14:22:37.911Z,1.27
2018-12-04T14:25:05.035Z,0.60
2018-12-04T14:27:32.164Z,1.10
2018-12-04T14:29:59.318Z,1.13
2018-12-04T14:32:26.422Z,0.80
2018-12-04T14:34:53.512Z,0.97
2018-12-04T14:37:20.636Z,1.20
2018-12-04T14:39:47.753Z,1.00
2018-12-04T14:42:14.841Z,0.80
2018-12-04T14:44:41.941Z,1.10
2018-12-04T14:47:09.041Z,1.17
2018-12-04T14:49:36.152Z,0.83
2018-12-04T14:52:03.236Z,0.80
2018-12-04T14:54:30.313Z,1.20
2018-12-04T14:56:57.413Z,1.13
2018-12-04T14:59:24.528Z,1.10
2018-12-04T15:01:51.607Z,0.93
2018-12-04T15:04:18.704Z,0.80
2018-12-04T15:06:45.897Z,1.17
2018-12-04T15:09:12.877Z,1.00
2018-12-04T15:11:40.037Z,1.00
2018-12-04T15:14:07.136Z,1.27
2018-12-04T15:16:34.235Z,1.10
2018-12-04T15:19:01.324Z,1.10
2018-12-04T15:21:28.448Z,0.77
2018-12-04T15:23:55.536Z,1.00
2018-12-04T15:26:22.627Z,0.90
2018-12-04T15:28:50.043Z,1.00
2018-12-04T15:31:17.139Z,0.97
2018-12-04T15:33:44.253Z,1.00
2018-12-04T15:36:11.357Z,0.97
2018-12-04T15:38:38.559Z,0.70
2018-12-04T15:41:05.644Z,1.00
2018-12-04T15:43:32.738Z,1.20
2018-12-04T15:45:59.848Z,0.83
2018-12-04T15:48:26.977Z,0.90
2018-12-04T15:50:59.873Z,1.03
2018-12-04T15:53:21.156Z,0.90
2018-12-04T15:55:48.257Z,1.27
2018-12-04T15:58:15.360Z,1.03
2018-12-04T16:00:42.480Z,0.97
2018-12-04T16:03:09.563Z,1.17
2018-12-04T16:05:36.665Z,1.00
2018-12-04T16:08:03.781Z,0.80
2018-12-04T16:10:30.869Z,0.80
2018-12-04T16:12:57.973Z,1.17
2018-12-04T16:15:25.191Z,1.00
2018-12-04T16:17:52.244Z,1.27
2018-12-04T16:20:19.369Z,1.00
2018-12-04T16:22:46.436Z,0.90
2018-12-04T16:25:13.546Z,1.07
2018-12-04T16:27:40.652Z,1.30
2018-12-04T16:30:08.772Z,0.93
2018-12-04T16:32:35.870Z,1.00
2018-12-04T16:35:03.404Z,1.20
2018-12-04T16:37:30.516Z,1.10
2018-12-04T16:39:57.605Z,0.90
2018-12-04T16:42:24.724Z,1.33
2018-12-04T16:44:51.824Z,0.97
2018-12-04T16:47:18.905Z,1.17
2018-12-04T16:49:45.997Z,1.80
2018-12-04T16:52:13.144Z,0.77
2018-12-04T16:54:40.246Z,1.30
2018-12-04T16:57:07.342Z,1.17
2018-12-04T16:59:34.531Z,0.90
2018-12-04T17:02:01.568Z,0.80
2018-12-04T17:04:28.665Z,1.17
2018-12-04T17:06:55.764Z,1.50
2018-12-04T17:09:22.859Z,1.47
2018-12-04T17:11:49.988Z,0.87
2018-12-04T17:14:17.095Z,1.17
2018-12-04T17:16:44.234Z,1.17
2018-12-04T17:19:11.348Z,0.70
2018-12-04T17:21:38.436Z,1.10
2018-12-04T17:24:05.564Z,1.50
2018-12-04T17:26:32.653Z,1.43
2018-12-04T17:28:59.823Z,0.73
2018-12-04T17:31:26.885Z,1.00
2018-12-04T17:33:55.065Z,1.40
2018-12-04T17:36:21.117Z,1.13
2018-12-04T17:38:48.205Z,1.33
2018-12-04T17:41:15.310Z,0.80
2018-12-04T17:43:42.396Z,1.43
2018-12-04T17:46:09.496Z,1.13
2018-12-04T17:48:36.564Z,1.03
2018-12-04T17:51:03.685Z,1.70
2018-12-04T17:53:30.804Z,1.30
2018-12-04T17:55:57.910Z,1.27
2018-12-04T17:58:25.005Z,1.00
2018-12-04T18:00:52.096Z,1.03
2018-12-04T18:03:19.197Z,1.37
2018-12-04T18:05:46.282Z,1.20
2018-12-04T18:08:13.386Z,1.20
2018-12-04T18:10:40.491Z,1.13
2018-12-04T18:13:07.580Z,0.97
2018-12-04T18:15:34.666Z,1.17
2018-12-04T18:18:01.752Z,1.17
2018-12-04T18:20:28.817Z,1.07
2018-12-04T18:22:55.893Z,1.20
2018-12-04T18:25:23.009Z,1.30
2018-12-04T18:27:50.108Z,1.67
2018-12-04T18:30:17.277Z,1.57
2018-12-04T18:32:44.368Z,1.80
2018-12-04T18:35:11.456Z,0.97
2018-12-04T18:37:38.557Z,1.37
2018-12-04T18:40:05.785Z,1.00
2018-12-04T18:42:32.885Z,1.07
2018-12-04T18:45:00.008Z,1.40
2018-12-04T18:47:27.124Z,1.07
2018-12-04T18:49:54.238Z,1.30
2018-12-04T18:52:21.326Z,1.40
2018-12-04T18:54:48.428Z,1.73
2018-12-04T18:57:15.516Z,1.40
2018-12-04T18:59:42.602Z,1.27
2018-12-04T19:02:09.725Z,1.63
2018-12-04T19:04:36.808Z,1.10
2018-12-04T19:07:03.905Z,1.33
2018-12-04T19:09:31.013Z,1.40
2018-12-04T19:11:58.124Z,1.23
2018-12-04T19:14:25.230Z,1.00
2018-12-04T19:16:52.330Z,1.20
2018-12-04T19:19:19.430Z,1.67
2018-12-04T19:21:46.524Z,1.10
2018-12-04T19:24:13.623Z,1.20
2018-12-04T19:26:40.697Z,1.50
2018-12-04T19:29:07.805Z,0.97
2018-12-04T19:31:34.922Z,1.53
2018-12-04T19:34:02.035Z,1.50
2018-12-04T19:36:29.160Z,1.53
2018-12-04T19:38:56.366Z,1.27
2018-12-04T19:41:23.505Z,1.30
2018-12-04T19:43:56.403Z,1.33
2018-12-04T19:46:17.744Z,1.43
2018-12-04T19:48:44.861Z,1.80
2018-12-04T19:51:12.006Z,1.40
2018-12-04T19:53:39.477Z,1.43
2018-12-04T19:56:06.666Z,1.70
2018-12-04T19:58:33.844Z,1.17
2018-12-04T20:01:01.007Z,1.40
2018-12-04T20:03:28.202Z,1.30
2018-12-04T20:05:55.328Z,1.30
2018-12-04T20:08:22.439Z,1.60
2018-12-04T20:10:49.562Z,1.23
2018-12-04T20:13:16.682Z,1.20
2018-12-04T20:15:43.790Z,1.37
2018-12-04T20:18:10.922Z,1.17
2018-12-04T20:20:38.131Z,1.13
2018-12-04T20:23:05.332Z,1.83
2018-12-04T20:25:32.523Z,1.53
2018-12-04T20:27:59.705Z,1.50
2018-12-04T20:30:26.821Z,1.50
2018-12-04T20:32:59.821Z,1.50
2018-12-04T20:35:21.097Z,1.47
2018-12-04T20:37:48.278Z,1.53
2018-12-04T20:40:15.413Z,1.70
2018-12-04T20:42:42.551Z,1.73
2018-12-04T20:45:09.669Z,1.47
2018-12-04T20:47:36.870Z,1.20
2018-12-04T20:50:04.942Z,1.50
2018-12-04T20:52:32.083Z,2.50
2018-12-04T20:54:59.301Z,1.57
2018-12-04T20:57:26.437Z,1.33
2018-12-04T20:59:53.557Z,1.27
2018-12-04T21:02:20.745Z,1.50
2018-12-04T21:04:47.918Z,1.47
2018-12-04T21:07:15.032Z,1.23
2018-12-04T21:09:42.168Z,1.40
2018-12-04T21:12:09.271Z,1.67
2018-12-04T21:14:36.451Z,1.60
2018-12-04T21:17:03.614Z,1.87
2018-12-04T21:19:30.786Z,1.03
2018-12-04T21:21:57.913Z,1.33
2018-12-04T21:24:25.119Z,1.80
2018-12-04T21:26:52.228Z,1.50
2018-12-04T21:29:25.216Z,1.60
2018-12-04T21:31:58.046Z,1.60
2018-12-04T21:34:31.041Z,1.83
2018-12-04T21:37:04.036Z,1.93
2018-12-04T21:39:35.606Z,1.20
2018-12-04T21:42:12.160Z,1.40
2018-12-04T21:44:45.068Z,1.83
2018-12-04T21:47:18.103Z,1.30
2018-12-04T21:49:45.218Z,1.30
2018-12-04T21:52:12.316Z,1.17
2018-12-04T21:54:39.420Z,1.07
2018-12-04T21:57:06.552Z,1.23
2018-12-04T21:59:33.688Z,1.47
2018-12-04T22:02:00.898Z,1.10
2018-12-04T22:04:28.029Z,1.50
2018-12-04T22:06:55.136Z,1.33
2018-12-04T22:09:22.260Z,1.20
2018-12-04T22:11:49.376Z,1.50
2018-12-04T22:14:16.488Z,1.03
2018-12-04T22:16:43.589Z,1.27
2018-12-04T22:19:10.742Z,1.30
2018-12-04T22:21:37.877Z,1.27
2018-12-04T22:24:05.007Z,1.30
2018-12-04T22:26:32.129Z,1.50
2018-12-04T22:28:59.240Z,1.67
2018-12-04T22:31:26.367Z,1.30
2018-12-04T22:33:53.476Z,1.00
2018-12-04T22:36:20.601Z,1.47
2018-12-04T22:38:47.741Z,1.07
2018-12-04T22:41:14.857Z,1.33
2018-12-04T22:43:41.964Z,1.53
2018-12-04T22:46:09.115Z,1.20
2018-12-04T22:48:36.224Z,1.63
2018-12-04T22:51:03.365Z,1.47
2018-12-04T22:53:30.493Z,1.60
2018-12-04T22:55:57.603Z,1.30
2018-12-04T22:58:24.740Z,1.30
2018-12-04T23:00:51.866Z,1.03
2018-12-04T23:03:18.986Z,1.70
2018-12-04T23:05:46.128Z,1.40
2018-12-04T23:08:13.256Z,1.20
2018-12-04T23:10:40.459Z,1.30
2018-12-04T23:13:07.585Z,1.10
2018-12-04T23:15:34.705Z,1.13
2018-12-04T23:18:01.845Z,1.43
2018-12-04T23:20:28.970Z,1.53
2018-12-04T23:22:56.112Z,1.00
2018-12-04T23:25:23.274Z,1.20
2018-12-04T23:27:50.377Z,1.40
2018-12-04T23:30:17.495Z,1.13
2018-12-04T23:32:44.603Z,0.90
2018-12-04T23:35:11.712Z,1.13
2018-12-04T23:37:38.838Z,1.33
2018-12-04T23:40:05.978Z,1.00
2018-12-04T23:42:33.109Z,1.00
2018-12-04T23:45:00.229Z,1.10
2018-12-04T23:47:27.351Z,1.00
2018-12-04T23:49:54.479Z,1.43
2018-12-04T23:52:21.627Z,1.07
2018-12-04T23:54:48.744Z,1.17
2018-12-04T23:57:15.896Z,1.40
2018-12-04T23:59:43.029Z,2.07
